FEC0629 KLAX-KLAS
Flight info
| Callsign | FEC0629 |
|---|---|
| Flight time | N/A |
| Altitude | 230 |
| Route | ORCKA5 MISEN RNDRZ4 |
| Aircraft | B38M/M-SDE1FGHILORVWXY/HB1 |
Departure
| Time | 2026-04-26 00:09 |
|---|---|
| Airport | Los Angeles International Airport (KLAX) |
Arrival
| Time | N/A |
|---|---|
| Airport | Harry Reid International Airport (KLAS) |
| Time | Latitude | Longitude | Altitude | Speed | Heading |
|---|---|---|---|---|---|
| 2026-04-25 23:46 | 33.94711 | -118.40783 | 128 ft | 0 kts | 173° |
| 2026-04-25 23:54 | 33.94717 | -118.40784 | 123 ft | 4 kts | 173° |
| 2026-04-25 23:54 | 33.94742 | -118.40785 | 126 ft | 4 kts | 195° |
| 2026-04-25 23:54 | 33.94762 | -118.40769 | 123 ft | 4 kts | 241° |
| 2026-04-25 23:55 | 33.94767 | -118.40753 | 126 ft | 1 kts | 263° |
| 2026-04-25 23:58 | 33.94765 | -118.40768 | 124 ft | 5 kts | 263° |
| 2026-04-25 23:58 | 33.94760 | -118.40829 | 125 ft | 10 kts | 263° |
| 2026-04-25 23:59 | 33.94758 | -118.40853 | 127 ft | 1 kts | 263° |
| 2026-04-25 23:59 | 33.94754 | -118.40885 | 128 ft | 6 kts | 262° |
| 2026-04-25 23:59 | 33.94746 | -118.40955 | 125 ft | 11 kts | 264° |
| 2026-04-25 23:59 | 33.94736 | -118.41065 | 128 ft | 15 kts | 262° |
| 2026-04-26 00:00 | 33.94717 | -118.41183 | 125 ft | 9 kts | 255° |
| 2026-04-26 00:00 | 33.94698 | -118.41260 | 126 ft | 11 kts | 252° |
| 2026-04-26 00:00 | 33.94674 | -118.41352 | 123 ft | 12 kts | 230° |
| 2026-04-26 00:00 | 33.94589 | -118.41369 | 126 ft | 14 kts | 174° |
| 2026-04-26 00:01 | 33.94485 | -118.41354 | 125 ft | 16 kts | 173° |
| 2026-04-26 00:01 | 33.94366 | -118.41338 | 126 ft | 18 kts | 174° |
| 2026-04-26 00:01 | 33.94234 | -118.41319 | 125 ft | 20 kts | 173° |
| 2026-04-26 00:01 | 33.94094 | -118.41294 | 125 ft | 19 kts | 165° |
| 2026-04-26 00:02 | 33.93958 | -118.41274 | 128 ft | 21 kts | 177° |
| 2026-04-26 00:02 | 33.93891 | -118.41266 | 126 ft | 3 kts | 171° |
| 2026-04-26 00:02 | 33.93862 | -118.41261 | 126 ft | 6 kts | 172° |
| 2026-04-26 00:02 | 33.93813 | -118.41254 | 125 ft | 8 kts | 174° |
| 2026-04-26 00:03 | 33.93762 | -118.41214 | 127 ft | 10 kts | 110° |
| 2026-04-26 00:03 | 33.93764 | -118.41119 | 126 ft | 13 kts | 84° |
| 2026-04-26 00:03 | 33.93774 | -118.41002 | 128 ft | 15 kts | 84° |
| 2026-04-26 00:03 | 33.93789 | -118.40865 | 128 ft | 18 kts | 83° |
| 2026-04-26 00:04 | 33.93806 | -118.40708 | 127 ft | 20 kts | 82° |
| 2026-04-26 00:04 | 33.93823 | -118.40530 | 128 ft | 23 kts | 83° |
| 2026-04-26 00:04 | 33.93844 | -118.40331 | 128 ft | 25 kts | 82° |
| 2026-04-26 00:04 | 33.93866 | -118.40112 | 125 ft | 27 kts | 83° |
| 2026-04-26 00:05 | 33.93889 | -118.39892 | 128 ft | 24 kts | 84° |
| 2026-04-26 00:05 | 33.93910 | -118.39683 | 126 ft | 26 kts | 83° |
| 2026-04-26 00:05 | 33.93934 | -118.39453 | 127 ft | 29 kts | 83° |
| 2026-04-26 00:05 | 33.93961 | -118.39205 | 128 ft | 31 kts | 83° |
| 2026-04-26 00:06 | 33.93980 | -118.38992 | 128 ft | 25 kts | 84° |
| 2026-04-26 00:06 | 33.93999 | -118.38819 | 125 ft | 20 kts | 83° |
| 2026-04-26 00:06 | 33.94017 | -118.38642 | 128 ft | 22 kts | 83° |
| 2026-04-26 00:06 | 33.94036 | -118.38452 | 126 ft | 19 kts | 82° |
| 2026-04-26 00:07 | 33.94051 | -118.38300 | 128 ft | 15 kts | 85° |
| 2026-04-26 00:07 | 33.94064 | -118.38202 | 128 ft | 9 kts | 84° |
| 2026-04-26 00:07 | 33.94073 | -118.38113 | 128 ft | 12 kts | 82° |
| 2026-04-26 00:07 | 33.94078 | -118.38056 | 128 ft | 8 kts | 95° |
| 2026-04-26 00:08 | 33.94040 | -118.38003 | 124 ft | 10 kts | 167° |
| 2026-04-26 00:08 | 33.93985 | -118.38045 | 128 ft | 12 kts | 259° |
| 2026-04-26 00:08 | 33.93971 | -118.38174 | 128 ft | 34 kts | 263° |
| 2026-04-26 00:08 | 33.93903 | -118.38797 | 128 ft | 113 kts | 262° |
| 2026-04-26 00:09 | 33.93789 | -118.39981 | 280 ft | 160 kts | 264° |
| 2026-04-26 00:09 | 33.93682 | -118.41404 | 823 ft | 183 kts | 264° |
| 2026-04-26 00:09 | 33.93524 | -118.42801 | 1674 ft | 161 kts | 263° |
| 2026-04-26 00:09 | 33.93373 | -118.44206 | 2232 ft | 178 kts | 262° |
| 2026-04-26 00:10 | 33.93202 | -118.45767 | 2628 ft | 200 kts | 259° |
| 2026-04-26 00:10 | 33.92754 | -118.47485 | 3088 ft | 232 kts | 248° |
| 2026-04-26 00:10 | 33.92135 | -118.49304 | 4088 ft | 239 kts | 248° |
| 2026-04-26 00:10 | 33.91478 | -118.51217 | 4558 ft | 252 kts | 248° |
| 2026-04-26 00:11 | 33.90804 | -118.53180 | 4696 ft | 255 kts | 248° |
| 2026-04-26 00:11 | 33.90123 | -118.55160 | 4821 ft | 256 kts | 248° |
| 2026-04-26 00:11 | 33.89426 | -118.57136 | 4932 ft | 258 kts | 243° |
| 2026-04-26 00:11 | 33.88218 | -118.58683 | 4943 ft | 259 kts | 209° |
| 2026-04-26 00:12 | 33.86461 | -118.59120 | 4968 ft | 265 kts | 178° |
| 2026-04-26 00:12 | 33.84636 | -118.58703 | 4998 ft | 269 kts | 169° |
| 2026-04-26 00:12 | 33.82837 | -118.58095 | 4980 ft | 271 kts | 158° |
| 2026-04-26 00:12 | 33.81374 | -118.56688 | 4971 ft | 275 kts | 128° |
| 2026-04-26 00:13 | 33.80621 | -118.54580 | 5184 ft | 279 kts | 100° |
| 2026-04-26 00:13 | 33.80725 | -118.52258 | 5540 ft | 282 kts | 72° |
| 2026-04-26 00:13 | 33.81708 | -118.50240 | 5954 ft | 282 kts | 43° |
| 2026-04-26 00:13 | 33.83349 | -118.48984 | 6471 ft | 282 kts | 17° |
| 2026-04-26 00:14 | 33.85194 | -118.48135 | 7121 ft | 287 kts | 22° |
| 2026-04-26 00:14 | 33.87007 | -118.47120 | 8079 ft | 288 kts | 22° |
| 2026-04-26 00:14 | 33.88806 | -118.46131 | 9364 ft | 279 kts | 22° |
| 2026-04-26 00:14 | 33.90571 | -118.45174 | 10377 ft | 286 kts | 21° |
| 2026-04-26 00:15 | 33.92410 | -118.44054 | 10869 ft | 309 kts | 34° |
| 2026-04-26 00:15 | 33.93925 | -118.42117 | 11422 ft | 329 kts | 55° |
| 2026-04-26 00:15 | 33.95226 | -118.39824 | 12073 ft | 341 kts | 54° |
| 2026-04-26 00:15 | 33.96617 | -118.37401 | 12815 ft | 352 kts | 54° |
| 2026-04-26 00:16 | 33.98014 | -118.34949 | 13695 ft | 358 kts | 55° |
| 2026-04-26 00:16 | 33.99419 | -118.32474 | 14396 ft | 366 kts | 56° |
| 2026-04-26 00:16 | 34.00865 | -118.29923 | 15210 ft | 371 kts | 56° |
| 2026-04-26 00:16 | 34.02331 | -118.27341 | 15991 ft | 376 kts | 56° |
| 2026-04-26 00:17 | 34.03817 | -118.24718 | 16780 ft | 381 kts | 56° |
| 2026-04-26 00:17 | 34.05318 | -118.22070 | 17546 ft | 385 kts | 56° |
| 2026-04-26 00:17 | 34.06841 | -118.19380 | 18215 ft | 390 kts | 57° |
| 2026-04-26 00:17 | 34.08380 | -118.16658 | 18841 ft | 395 kts | 57° |
| 2026-04-26 00:18 | 34.09941 | -118.13898 | 19435 ft | 401 kts | 57° |
| 2026-04-26 00:18 | 34.11526 | -118.11093 | 20009 ft | 407 kts | 57° |
| 2026-04-26 00:18 | 34.13126 | -118.08257 | 20563 ft | 412 kts | 57° |
| 2026-04-26 00:18 | 34.14747 | -118.05381 | 21073 ft | 417 kts | 57° |
| 2026-04-26 00:19 | 34.16387 | -118.02470 | 21636 ft | 421 kts | 57° |
| 2026-04-26 00:19 | 34.18042 | -117.99531 | 22164 ft | 426 kts | 57° |
| 2026-04-26 00:19 | 34.19715 | -117.96558 | 22702 ft | 431 kts | 57° |
| 2026-04-26 00:19 | 34.21408 | -117.93539 | 22909 ft | 434 kts | 57° |
| 2026-04-26 00:20 | 34.23104 | -117.90523 | 22985 ft | 434 kts | 57° |
| 2026-04-26 00:20 | 34.24796 | -117.87510 | 22976 ft | 433 kts | 57° |
| 2026-04-26 00:20 | 34.26489 | -117.84490 | 22967 ft | 433 kts | 57° |
| 2026-04-26 00:20 | 34.28177 | -117.81475 | 22948 ft | 433 kts | 57° |
| 2026-04-26 00:21 | 34.29866 | -117.78457 | 22923 ft | 433 kts | 57° |
| 2026-04-26 00:21 | 34.31549 | -117.75447 | 22911 ft | 432 kts | 57° |
| 2026-04-26 00:21 | 34.33231 | -117.72432 | 22906 ft | 433 kts | 58° |
| 2026-04-26 00:21 | 34.34937 | -117.69426 | 22914 ft | 433 kts | 55° |
| 2026-04-26 00:22 | 34.36714 | -117.66484 | 22912 ft | 433 kts | 55° |
| 2026-04-26 00:22 | 34.37888 | -117.64527 | 22902 ft | 433 kts | 55° |
| 2026-04-26 00:22 | 34.39653 | -117.61571 | 22878 ft | 433 kts | 55° |
| 2026-04-26 00:22 | 34.41420 | -117.58611 | 22884 ft | 433 kts | 56° |
| 2026-04-26 00:23 | 34.43182 | -117.55654 | 22880 ft | 433 kts | 55° |
| 2026-04-26 00:23 | 34.44941 | -117.52698 | 22867 ft | 432 kts | 56° |
| 2026-04-26 00:23 | 34.46693 | -117.49753 | 22891 ft | 431 kts | 56° |
| 2026-04-26 00:23 | 34.48445 | -117.46807 | 22866 ft | 431 kts | 56° |
| 2026-04-26 00:24 | 34.50194 | -117.43861 | 22886 ft | 430 kts | 56° |
| 2026-04-26 00:24 | 34.51941 | -117.40917 | 22898 ft | 430 kts | 56° |
| 2026-04-26 00:24 | 34.53687 | -117.37973 | 22893 ft | 430 kts | 56° |
| 2026-04-26 00:24 | 34.55429 | -117.35033 | 22898 ft | 430 kts | 56° |
| 2026-04-26 00:25 | 34.57173 | -117.32088 | 22902 ft | 429 kts | 56° |
| 2026-04-26 00:25 | 34.58912 | -117.29147 | 22903 ft | 429 kts | 56° |
| 2026-04-26 00:25 | 34.60655 | -117.26197 | 22893 ft | 429 kts | 56° |
| 2026-04-26 00:25 | 34.62394 | -117.23253 | 22880 ft | 429 kts | 56° |
| 2026-04-26 00:26 | 34.64140 | -117.20293 | 22878 ft | 437 kts | 56° |
| 2026-04-26 00:26 | 34.65941 | -117.17239 | 22770 ft | 452 kts | 56° |
| 2026-04-26 00:26 | 34.67802 | -117.14078 | 22770 ft | 468 kts | 56° |
| 2026-04-26 00:26 | 34.69729 | -117.10803 | 22760 ft | 484 kts | 56° |
| 2026-04-26 00:27 | 34.71714 | -117.07428 | 22764 ft | 498 kts | 56° |
| 2026-04-26 00:27 | 34.73750 | -117.03961 | 22765 ft | 510 kts | 56° |
| 2026-04-26 00:27 | 34.75826 | -117.00422 | 22771 ft | 518 kts | 56° |
| 2026-04-26 00:27 | 34.77927 | -116.96839 | 22783 ft | 522 kts | 56° |
| 2026-04-26 00:28 | 34.80033 | -116.93244 | 22788 ft | 522 kts | 56° |
| 2026-04-26 00:28 | 34.82139 | -116.89643 | 22809 ft | 522 kts | 56° |
| 2026-04-26 00:28 | 34.84239 | -116.86048 | 22797 ft | 520 kts | 56° |
| 2026-04-26 00:28 | 34.86337 | -116.82456 | 22800 ft | 520 kts | 56° |
| 2026-04-26 00:29 | 34.88431 | -116.78866 | 22805 ft | 520 kts | 56° |
| 2026-04-26 00:29 | 34.90523 | -116.75278 | 22804 ft | 520 kts | 56° |
| 2026-04-26 00:29 | 34.92592 | -116.71663 | 22805 ft | 520 kts | 57° |
| 2026-04-26 00:29 | 34.94640 | -116.68031 | 22796 ft | 520 kts | 57° |
| 2026-04-26 00:30 | 34.96692 | -116.64404 | 22790 ft | 520 kts | 57° |
| 2026-04-26 00:30 | 34.98747 | -116.60769 | 22781 ft | 520 kts | 57° |
| 2026-04-26 00:30 | 35.00796 | -116.57142 | 22779 ft | 520 kts | 57° |
| 2026-04-26 00:30 | 35.02850 | -116.53505 | 22762 ft | 519 kts | 56° |
| 2026-04-26 00:31 | 35.04895 | -116.49877 | 22759 ft | 519 kts | 56° |
| 2026-04-26 00:31 | 35.06941 | -116.46246 | 22748 ft | 519 kts | 56° |
| 2026-04-26 00:31 | 35.08986 | -116.42612 | 22743 ft | 519 kts | 56° |
| 2026-04-26 00:31 | 35.11217 | -116.39155 | 22740 ft | 519 kts | 47° |
| 2026-04-26 00:32 | 35.13691 | -116.35941 | 22713 ft | 520 kts | 47° |
| 2026-04-26 00:32 | 35.16160 | -116.32737 | 22063 ft | 514 kts | 46° |
| 2026-04-26 00:32 | 35.20986 | -116.26488 | 20986 ft | 504 kts | 47° |
| 2026-04-26 00:33 | 35.23336 | -116.23344 | 20475 ft | 498 kts | 48° |
| 2026-04-26 00:33 | 35.25635 | -116.20198 | 19990 ft | 494 kts | 48° |
| 2026-04-26 00:33 | 35.27917 | -116.17090 | 19507 ft | 489 kts | 48° |
| 2026-04-26 00:33 | 35.30183 | -116.14007 | 19054 ft | 485 kts | 48° |
| 2026-04-26 00:34 | 35.32424 | -116.10944 | 18781 ft | 482 kts | 49° |
| 2026-04-26 00:34 | 35.34651 | -116.07884 | 18749 ft | 481 kts | 49° |
| 2026-04-26 00:34 | 35.36879 | -116.04823 | 18754 ft | 481 kts | 49° |
| 2026-04-26 00:34 | 35.39097 | -116.01771 | 18415 ft | 475 kts | 49° |
| 2026-04-26 00:35 | 35.45551 | -115.92880 | 16212 ft | 346 kts | 49° |
| 2026-04-26 00:36 | 35.47169 | -115.90647 | 15780 ft | 355 kts | 49° |
| 2026-04-26 00:36 | 35.48846 | -115.88332 | 15758 ft | 372 kts | 49° |
| 2026-04-26 00:36 | 35.50602 | -115.85904 | 15754 ft | 389 kts | 49° |
| 2026-04-26 00:36 | 35.52437 | -115.83365 | 15744 ft | 406 kts | 49° |
| 2026-04-26 00:37 | 35.54351 | -115.80716 | 15746 ft | 423 kts | 49° |
| 2026-04-26 00:37 | 35.56300 | -115.78016 | 15427 ft | 419 kts | 49° |
| 2026-04-26 00:37 | 35.58215 | -115.75363 | 15176 ft | 410 kts | 49° |
| 2026-04-26 00:37 | 35.60087 | -115.72821 | 15244 ft | 392 kts | 48° |
| 2026-04-26 00:38 | 35.61886 | -115.70396 | 15252 ft | 376 kts | 48° |
| 2026-04-26 00:38 | 35.63615 | -115.68059 | 15238 ft | 364 kts | 48° |
| 2026-04-26 00:38 | 35.65296 | -115.65787 | 15089 ft | 355 kts | 48° |
| 2026-04-26 00:38 | 35.66958 | -115.63534 | 14905 ft | 355 kts | 47° |
| 2026-04-26 00:39 | 35.68620 | -115.61284 | 14729 ft | 355 kts | 48° |
| 2026-04-26 00:39 | 35.70282 | -115.59031 | 14703 ft | 356 kts | 48° |
| 2026-04-26 00:39 | 35.71947 | -115.56775 | 14639 ft | 357 kts | 47° |
| 2026-04-26 00:39 | 35.73845 | -115.54842 | 14447 ft | 353 kts | 28° |
| 2026-04-26 00:40 | 35.75985 | -115.53371 | 14278 ft | 353 kts | 27° |
| 2026-04-26 00:40 | 35.78117 | -115.51873 | 14094 ft | 353 kts | 27° |
| 2026-04-26 00:40 | 35.80243 | -115.50383 | 13910 ft | 352 kts | 27° |
| 2026-04-26 00:40 | 35.82371 | -115.48890 | 13722 ft | 351 kts | 27° |
| 2026-04-26 00:41 | 35.84490 | -115.47403 | 13550 ft | 349 kts | 27° |
| 2026-04-26 00:41 | 35.86593 | -115.45927 | 13352 ft | 347 kts | 27° |
| 2026-04-26 00:41 | 35.88687 | -115.44457 | 13168 ft | 346 kts | 27° |
| 2026-04-26 00:41 | 35.90772 | -115.42996 | 13016 ft | 344 kts | 27° |
| 2026-04-26 00:42 | 35.92857 | -115.41541 | 12699 ft | 345 kts | 27° |
| 2026-04-26 00:42 | 35.94943 | -115.40086 | 12348 ft | 344 kts | 28° |
| 2026-04-26 00:42 | 35.97016 | -115.38637 | 12035 ft | 341 kts | 27° |
| 2026-04-26 00:42 | 35.99032 | -115.37131 | 11722 ft | 338 kts | 38° |
| 2026-04-26 00:43 | 36.00557 | -115.34972 | 11405 ft | 332 kts | 63° |
| 2026-04-26 00:43 | 36.01257 | -115.32324 | 11139 ft | 320 kts | 88° |
| 2026-04-26 00:43 | 36.01254 | -115.29628 | 10934 ft | 310 kts | 97° |
| 2026-04-26 00:43 | 36.01164 | -115.26995 | 10676 ft | 306 kts | 97° |
| 2026-04-26 00:44 | 36.01060 | -115.24387 | 10407 ft | 302 kts | 97° |
| 2026-04-26 00:44 | 36.00946 | -115.21818 | 10148 ft | 298 kts | 98° |
| 2026-04-26 00:44 | 36.00867 | -115.20133 | 9970 ft | 296 kts | 98° |